sensor_id;sensor_type;location;lat;lon;timestamp;temperature;humidity
6018;DHT22;3037;51.068;13.780;2022-07-17T00:00:25;11.50;99.90
6018;DHT22;3037;51.068;13.780;2022-07-17T00:02:51;11.50;99.90
6018;DHT22;3037;51.068;13.780;2022-07-17T00:05:16;11.40;99.90
6018;DHT22;3037;51.068;13.780;2022-07-17T00:07:42;11.50;99.90
6018;DHT22;3037;51.068;13.780;2022-07-17T00:10:08;11.40;99.90
6018;DHT22;3037;51.068;13.780;2022-07-17T00:12:34;11.30;99.90
6018;DHT22;3037;51.068;13.780;2022-07-17T00:15:00;11.20;99.90
6018;DHT22;3037;51.068;13.780;2022-07-17T00:17:25;11.20;99.90
6018;DHT22;3037;51.068;13.780;2022-07-17T00:19:51;11.10;99.90
6018;DHT22;3037;51.068;13.780;2022-07-17T00:22:16;11.20;99.90
6018;DHT22;3037;51.068;13.780;2022-07-17T00:24:42;11.30;99.90
6018;DHT22;3037;51.068;13.780;2022-07-17T00:27:07;11.30;99.90
6018;DHT22;3037;51.068;13.780;2022-07-17T00:29:33;11.20;99.90
6018;DHT22;3037;51.068;13.780;2022-07-17T00:31:58;11.20;99.90
6018;DHT22;3037;51.068;13.780;2022-07-17T00:34:24;11.10;99.90
6018;DHT22;3037;51.068;13.780;2022-07-17T00:36:50;11.60;99.90
6018;DHT22;3037;51.068;13.780;2022-07-17T00:39:15;11.00;99.90
6018;DHT22;3037;51.068;13.780;2022-07-17T00:41:43;11.00;99.90
6018;DHT22;3037;51.068;13.780;2022-07-17T00:44:10;11.00;99.90
6018;DHT22;3037;51.068;13.780;2022-07-17T00:46:37;11.00;99.90
6018;DHT22;3037;51.068;13.780;2022-07-17T00:49:04;11.00;99.90
6018;DHT22;3037;51.068;13.780;2022-07-17T00:51:30;11.00;99.90
6018;DHT22;3037;51.068;13.780;2022-07-17T00:53:58;10.90;99.90
6018;DHT22;3037;51.068;13.780;2022-07-17T00:56:24;10.80;99.90
6018;DHT22;3037;51.068;13.780;2022-07-17T00:58:52;10.60;99.90
6018;DHT22;3037;51.068;13.780;2022-07-17T01:01:18;10.70;99.90
6018;DHT22;3037;51.068;13.780;2022-07-17T01:03:43;10.60;99.90
6018;DHT22;3037;51.068;13.780;2022-07-17T01:06:09;10.50;99.90
6018;DHT22;3037;51.068;13.780;2022-07-17T01:08:35;10.40;99.90
6018;DHT22;3037;51.068;13.780;2022-07-17T01:11:02;10.40;99.90
6018;DHT22;3037;51.068;13.780;2022-07-17T01:13:28;10.30;99.90
6018;DHT22;3037;51.068;13.780;2022-07-17T06:37:36;28.60;12.10
6018;DHT22;3037;51.068;13.780;2022-07-17T06:40:03;29.70;1.00
6018;DHT22;3037;51.068;13.780;2022-07-17T06:42:29;29.40;1.00
6018;DHT22;3037;51.068;13.780;2022-07-17T06:44:55;29.40;1.00
6018;DHT22;3037;51.068;13.780;2022-07-17T06:47:20;30.60;1.00
6018;DHT22;3037;51.068;13.780;2022-07-17T06:49:46;30.70;1.00
6018;DHT22;3037;51.068;13.780;2022-07-17T06:52:11;28.30;1.00
6018;DHT22;3037;51.068;13.780;2022-07-17T06:54:37;30.10;1.00
6018;DHT22;3037;51.068;13.780;2022-07-17T06:57:02;30.50;1.00
6018;DHT22;3037;51.068;13.780;2022-07-17T06:59:28;30.70;1.00
6018;DHT22;3037;51.068;13.780;2022-07-17T07:01:53;30.70;1.00
6018;DHT22;3037;51.068;13.780;2022-07-17T07:04:19;30.50;1.00
6018;DHT22;3037;51.068;13.780;2022-07-17T07:06:45;30.70;1.00
6018;DHT22;3037;51.068;13.780;2022-07-17T07:09:10;31.10;1.00
6018;DHT22;3037;51.068;13.780;2022-07-17T07:11:39;31.10;1.00
6018;DHT22;3037;51.068;13.780;2022-07-17T07:14:06;31.30;1.00
6018;DHT22;3037;51.068;13.780;2022-07-17T07:16:32;30.20;1.00
6018;DHT22;3037;51.068;13.780;2022-07-17T07:18:57;30.40;1.00
6018;DHT22;3037;51.068;13.780;2022-07-17T07:21:23;29.50;1.00
6018;DHT22;3037;51.068;13.780;2022-07-17T07:23:51;29.40;1.00
6018;DHT22;3037;51.068;13.780;2022-07-17T07:26:16;29.00;1.00
6018;DHT22;3037;51.068;13.780;2022-07-17T07:28:42;27.80;1.00
6018;DHT22;3037;51.068;13.780;2022-07-17T07:31:07;28.30;1.00
6018;DHT22;3037;51.068;13.780;2022-07-17T07:33:33;28.20;1.00
6018;DHT22;3037;51.068;13.780;2022-07-17T07:35:59;28.10;1.00
6018;DHT22;3037;51.068;13.780;2022-07-17T07:38:24;28.50;1.00
6018;DHT22;3037;51.068;13.780;2022-07-17T07:40:50;28.20;1.00
6018;DHT22;3037;51.068;13.780;2022-07-17T07:43:16;28.80;1.00
6018;DHT22;3037;51.068;13.780;2022-07-17T07:45:41;30.20;1.00
6018;DHT22;3037;51.068;13.780;2022-07-17T07:48:07;29.80;1.00
6018;DHT22;3037;51.068;13.780;2022-07-17T07:50:32;30.10;1.00
6018;DHT22;3037;51.068;13.780;2022-07-17T07:52:58;31.50;1.00
6018;DHT22;3037;51.068;13.780;2022-07-17T07:55:23;31.30;1.00
6018;DHT22;3037;51.068;13.780;2022-07-17T07:57:49;31.30;1.00
6018;DHT22;3037;51.068;13.780;2022-07-17T08:00:15;31.70;1.00
6018;DHT22;3037;51.068;13.780;2022-07-17T08:02:41;31.40;1.00
6018;DHT22;3037;51.068;13.780;2022-07-17T08:05:06;32.00;1.00
6018;DHT22;3037;51.068;13.780;2022-07-17T08:07:34;30.30;1.00
6018;DHT22;3037;51.068;13.780;2022-07-17T08:10:00;29.30;1.00
6018;DHT22;3037;51.068;13.780;2022-07-17T08:12:25;27.60;1.00
6018;DHT22;3037;51.068;13.780;2022-07-17T08:14:51;27.50;1.00
6018;DHT22;3037;51.068;13.780;2022-07-17T08:17:17;26.10;1.00
6018;DHT22;3037;51.068;13.780;2022-07-17T08:19:44;26.40;1.00
6018;DHT22;3037;51.068;13.780;2022-07-17T08:22:09;27.00;1.00
6018;DHT22;3037;51.068;13.780;2022-07-17T08:24:35;27.60;1.00
6018;DHT22;3037;51.068;13.780;2022-07-17T08:27:00;28.20;1.00
6018;DHT22;3037;51.068;13.780;2022-07-17T08:29:26;28.70;1.00
6018;DHT22;3037;51.068;13.780;2022-07-17T08:31:51;29.10;1.00
6018;DHT22;3037;51.068;13.780;2022-07-17T08:34:18;29.80;1.00
6018;DHT22;3037;51.068;13.780;2022-07-17T08:36:44;29.20;1.00
6018;DHT22;3037;51.068;13.780;2022-07-17T08:39:09;29.40;1.00
6018;DHT22;3037;51.068;13.780;2022-07-17T08:41:38;31.30;1.00
6018;DHT22;3037;51.068;13.780;2022-07-17T08:44:05;31.70;1.00
6018;DHT22;3037;51.068;13.780;2022-07-17T08:46:33;32.00;1.00
6018;DHT22;3037;51.068;13.780;2022-07-17T08:49:01;31.50;1.00
6018;DHT22;3037;51.068;13.780;2022-07-17T08:51:28;32.00;1.00
6018;DHT22;3037;51.068;13.780;2022-07-17T08:53:54;32.10;1.00
6018;DHT22;3037;51.068;13.780;2022-07-17T08:56:20;30.50;1.00
6018;DHT22;3037;51.068;13.780;2022-07-17T08:58:46;30.40;1.00
6018;DHT22;3037;51.068;13.780;2022-07-17T09:01:11;31.30;1.00
6018;DHT22;3037;51.068;13.780;2022-07-17T09:03:39;30.50;1.00
6018;DHT22;3037;51.068;13.780;2022-07-17T09:06:04;30.10;1.00
6018;DHT22;3037;51.068;13.780;2022-07-17T09:08:30;30.30;1.00
6018;DHT22;3037;51.068;13.780;2022-07-17T09:10:59;30.60;1.00
6018;DHT22;3037;51.068;13.780;2022-07-17T09:13:25;30.70;1.00
6018;DHT22;3037;51.068;13.780;2022-07-17T09:15:53;29.40;1.00
6018;DHT22;3037;51.068;13.780;2022-07-17T09:18:19;28.30;1.00
6018;DHT22;3037;51.068;13.780;2022-07-17T09:20:47;29.10;1.00
6018;DHT22;3037;51.068;13.780;2022-07-17T09:23:13;29.70;1.00
6018;DHT22;3037;51.068;13.780;2022-07-17T09:25:42;29.90;1.00
6018;DHT22;3037;51.068;13.780;2022-07-17T09:28:14;30.90;1.00
6018;DHT22;3037;51.068;13.780;2022-07-17T09:30:42;31.70;1.00
6018;DHT22;3037;51.068;13.780;2022-07-17T09:33:13;32.50;1.00
6018;DHT22;3037;51.068;13.780;2022-07-17T09:35:48;32.60;1.00
6018;DHT22;3037;51.068;13.780;2022-07-17T09:38:31;32.10;1.00
6018;DHT22;3037;51.068;13.780;2022-07-17T09:41:14;32.50;1.00
6018;DHT22;3037;51.068;13.780;2022-07-17T09:43:56;32.00;1.00
6018;DHT22;3037;51.068;13.780;2022-07-17T09:46:31;31.70;1.00
6018;DHT22;3037;51.068;13.780;2022-07-17T09:49:05;31.40;1.00
6018;DHT22;3037;51.068;13.780;2022-07-17T09:51:35;32.00;1.00
6018;DHT22;3037;51.068;13.780;2022-07-17T09:54:05;32.20;1.00
6018;DHT22;3037;51.068;13.780;2022-07-17T09:56:33;31.80;1.00
6018;DHT22;3037;51.068;13.780;2022-07-17T09:59:03;31.50;1.00
6018;DHT22;3037;51.068;13.780;2022-07-17T10:01:29;30.90;1.00
6018;DHT22;3037;51.068;13.780;2022-07-17T10:03:55;30.60;1.00
6018;DHT22;3037;51.068;13.780;2022-07-17T10:06:22;31.10;1.00
6018;DHT22;3037;51.068;13.780;2022-07-17T10:08:48;32.00;1.00
6018;DHT22;3037;51.068;13.780;2022-07-17T10:11:13;30.70;1.00
6018;DHT22;3037;51.068;13.780;2022-07-17T10:13:43;30.40;1.00
6018;DHT22;3037;51.068;13.780;2022-07-17T10:16:10;31.50;1.00
6018;DHT22;3037;51.068;13.780;2022-07-17T10:18:44;31.30;1.00
6018;DHT22;3037;51.068;13.780;2022-07-17T10:21:13;31.80;1.00
6018;DHT22;3037;51.068;13.780;2022-07-17T19:09:59;20.20;4.50
6018;DHT22;3037;51.068;13.780;2022-07-17T19:12:25;20.00;2.00
6018;DHT22;3037;51.068;13.780;2022-07-17T19:14:50;19.70;1.00
6018;DHT22;3037;51.068;13.780;2022-07-17T19:19:43;19.40;7.20
6018;DHT22;3037;51.068;13.780;2022-07-17T19:22:09;19.30;7.40
6018;DHT22;3037;51.068;13.780;2022-07-17T19:24:35;19.10;6.00
6018;DHT22;3037;51.068;13.780;2022-07-17T19:27:01;19.00;5.60
6018;DHT22;3037;51.068;13.780;2022-07-17T19:29:27;18.80;6.60
6018;DHT22;3037;51.068;13.780;2022-07-17T19:31:53;18.80;5.40
6018;DHT22;3037;51.068;13.780;2022-07-17T19:34:18;18.70;6.60
6018;DHT22;3037;51.068;13.780;2022-07-17T19:36:44;18.60;8.50
6018;DHT22;3037;51.068;13.780;2022-07-17T19:39:10;18.50;7.80
6018;DHT22;3037;51.068;13.780;2022-07-17T19:41:37;18.40;6.50
6018;DHT22;3037;51.068;13.780;2022-07-17T19:44:04;18.20;10.70
6018;DHT22;3037;51.068;13.780;2022-07-17T19:46:30;18.10;8.80
6018;DHT22;3037;51.068;13.780;2022-07-17T19:48:57;18.00;9.50
6018;DHT22;3037;51.068;13.780;2022-07-17T19:51:23;18.00;11.40
6018;DHT22;3037;51.068;13.780;2022-07-17T19:53:48;18.10;11.50
6018;DHT22;3037;51.068;13.780;2022-07-17T19:56:14;18.10;3.50
6018;DHT22;3037;51.068;13.780;2022-07-17T19:58:48;17.90;1.00
6018;DHT22;3037;51.068;13.780;2022-07-17T20:01:15;17.90;1.00
6018;DHT22;3037;51.068;13.780;2022-07-17T20:03:41;17.50;1.00
6018;DHT22;3037;51.068;13.780;2022-07-17T20:06:06;17.40;1.00
6018;DHT22;3037;51.068;13.780;2022-07-17T20:08:33;17.30;1.00
6018;DHT22;3037;51.068;13.780;2022-07-17T20:10:59;17.30;1.00
6018;DHT22;3037;51.068;13.780;2022-07-17T20:13:25;17.10;1.00
6018;DHT22;3037;51.068;13.780;2022-07-17T20:15:51;17.10;1.00
6018;DHT22;3037;51.068;13.780;2022-07-17T20:18:17;17.00;1.00
6018;DHT22;3037;51.068;13.780;2022-07-17T20:20:43;17.00;1.00
6018;DHT22;3037;51.068;13.780;2022-07-17T20:23:09;16.90;1.00
6018;DHT22;3037;51.068;13.780;2022-07-17T20:25:34;16.80;1.00
6018;DHT22;3037;51.068;13.780;2022-07-17T20:28:00;16.70;1.00
6018;DHT22;3037;51.068;13.780;2022-07-17T20:30:25;16.70;1.00
6018;DHT22;3037;51.068;13.780;2022-07-17T20:32:51;16.70;1.00
6018;DHT22;3037;51.068;13.780;2022-07-17T20:35:16;16.70;1.00
6018;DHT22;3037;51.068;13.780;2022-07-17T20:37:42;16.80;1.00
6018;DHT22;3037;51.068;13.780;2022-07-17T20:40:08;17.10;1.00
6018;DHT22;3037;51.068;13.780;2022-07-17T20:42:34;16.90;1.00
6018;DHT22;3037;51.068;13.780;2022-07-17T20:44:59;16.90;1.00
6018;DHT22;3037;51.068;13.780;2022-07-17T20:47:25;16.70;1.00
6018;DHT22;3037;51.068;13.780;2022-07-17T20:49:50;16.60;1.00
6018;DHT22;3037;51.068;13.780;2022-07-17T20:52:16;16.50;1.00
6018;DHT22;3037;51.068;13.780;2022-07-17T20:54:41;16.50;1.00
6018;DHT22;3037;51.068;13.780;2022-07-17T20:57:07;16.40;1.00
6018;DHT22;3037;51.068;13.780;2022-07-17T20:59:32;16.30;2.10
6018;DHT22;3037;51.068;13.780;2022-07-17T21:01:58;16.30;2.70
6018;DHT22;3037;51.068;13.780;2022-07-17T21:04:24;16.30;2.50
6018;DHT22;3037;51.068;13.780;2022-07-17T21:06:49;16.30;1.00
6018;DHT22;3037;51.068;13.780;2022-07-17T21:09:15;16.60;1.00
6018;DHT22;3037;51.068;13.780;2022-07-17T21:11:42;16.70;1.00
6018;DHT22;3037;51.068;13.780;2022-07-17T21:14:07;16.70;1.00
6018;DHT22;3037;51.068;13.780;2022-07-17T21:16:33;16.70;1.00
6018;DHT22;3037;51.068;13.780;2022-07-17T21:18:59;16.60;1.00
6018;DHT22;3037;51.068;13.780;2022-07-17T21:21:24;16.50;1.00
6018;DHT22;3037;51.068;13.780;2022-07-17T21:23:50;16.40;1.60
6018;DHT22;3037;51.068;13.780;2022-07-17T21:26:15;16.30;1.20
6018;DHT22;3037;51.068;13.780;2022-07-17T21:28:41;16.30;2.20
6018;DHT22;3037;51.068;13.780;2022-07-17T21:31:06;16.40;3.30
6018;DHT22;3037;51.068;13.780;2022-07-17T21:33:33;16.60;2.90
6018;DHT22;3037;51.068;13.780;2022-07-17T21:35:58;16.50;3.70
6018;DHT22;3037;51.068;13.780;2022-07-17T21:38:26;16.50;4.20
6018;DHT22;3037;51.068;13.780;2022-07-17T21:40:52;16.40;5.20
6018;DHT22;3037;51.068;13.780;2022-07-17T21:43:18;16.20;5.50
6018;DHT22;3037;51.068;13.780;2022-07-17T21:45:43;16.10;7.60
6018;DHT22;3037;51.068;13.780;2022-07-17T21:48:09;16.20;7.50
6018;DHT22;3037;51.068;13.780;2022-07-17T21:50:35;16.30;8.40
6018;DHT22;3037;51.068;13.780;2022-07-17T21:53:00;16.20;9.10
6018;DHT22;3037;51.068;13.780;2022-07-17T21:55:26;16.30;9.40
6018;DHT22;3037;51.068;13.780;2022-07-17T21:57:51;16.20;10.20
6018;DHT22;3037;51.068;13.780;2022-07-17T22:00:18;16.10;10.80
6018;DHT22;3037;51.068;13.780;2022-07-17T22:02:44;16.10;12.60
6018;DHT22;3037;51.068;13.780;2022-07-17T22:05:11;16.00;13.60
6018;DHT22;3037;51.068;13.780;2022-07-17T22:07:37;15.80;14.90
6018;DHT22;3037;51.068;13.780;2022-07-17T22:10:05;15.90;15.80
6018;DHT22;3037;51.068;13.780;2022-07-17T22:12:31;15.80;16.90
6018;DHT22;3037;51.068;13.780;2022-07-17T22:14:57;15.70;18.70
6018;DHT22;3037;51.068;13.780;2022-07-17T22:17:23;15.60;18.80
6018;DHT22;3037;51.068;13.780;2022-07-17T22:19:49;15.50;20.00
6018;DHT22;3037;51.068;13.780;2022-07-17T22:22:14;15.50;23.00
6018;DHT22;3037;51.068;13.780;2022-07-17T22:24:40;15.50;23.60
6018;DHT22;3037;51.068;13.780;2022-07-17T22:27:06;15.40;23.80
6018;DHT22;3037;51.068;13.780;2022-07-17T22:29:32;15.60;25.00
6018;DHT22;3037;51.068;13.780;2022-07-17T22:31:58;15.70;25.70
6018;DHT22;3037;51.068;13.780;2022-07-17T22:34:23;15.60;27.40
6018;DHT22;3037;51.068;13.780;2022-07-17T22:36:49;15.50;29.40
6018;DHT22;3037;51.068;13.780;2022-07-17T22:39:15;15.50;32.40
6018;DHT22;3037;51.068;13.780;2022-07-17T22:41:40;15.50;32.90
6018;DHT22;3037;51.068;13.780;2022-07-17T22:44:06;15.40;34.60
6018;DHT22;3037;51.068;13.780;2022-07-17T22:46:31;15.40;36.30
6018;DHT22;3037;51.068;13.780;2022-07-17T22:48:59;15.40;37.30
6018;DHT22;3037;51.068;13.780;2022-07-17T22:51:24;15.20;39.70
6018;DHT22;3037;51.068;13.780;2022-07-17T22:53:50;15.10;42.20
6018;DHT22;3037;51.068;13.780;2022-07-17T22:56:17;15.10;43.80
6018;DHT22;3037;51.068;13.780;2022-07-17T22:58:42;15.20;45.10
6018;DHT22;3037;51.068;13.780;2022-07-17T23:01:08;15.20;45.90
6018;DHT22;3037;51.068;13.780;2022-07-17T23:03:34;15.20;47.80
6018;DHT22;3037;51.068;13.780;2022-07-17T23:06:00;15.10;50.10
6018;DHT22;3037;51.068;13.780;2022-07-17T23:08:26;15.00;52.20
6018;DHT22;3037;51.068;13.780;2022-07-17T23:10:51;15.00;52.90
6018;DHT22;3037;51.068;13.780;2022-07-17T23:13:17;15.00;56.50
6018;DHT22;3037;51.068;13.780;2022-07-17T23:15:43;14.90;59.00
6018;DHT22;3037;51.068;13.780;2022-07-17T23:18:08;15.00;60.40
6018;DHT22;3037;51.068;13.780;2022-07-17T23:20:34;14.90;64.30
6018;DHT22;3037;51.068;13.780;2022-07-17T23:22:59;14.90;65.70
6018;DHT22;3037;51.068;13.780;2022-07-17T23:25:25;14.80;69.40
6018;DHT22;3037;51.068;13.780;2022-07-17T23:27:50;14.80;71.30
6018;DHT22;3037;51.068;13.780;2022-07-17T23:30:16;14.80;73.60
6018;DHT22;3037;51.068;13.780;2022-07-17T23:32:41;14.80;75.10
6018;DHT22;3037;51.068;13.780;2022-07-17T23:35:07;14.80;76.80
6018;DHT22;3037;51.068;13.780;2022-07-17T23:37:34;14.70;78.30
6018;DHT22;3037;51.068;13.780;2022-07-17T23:40:00;14.60;81.20
6018;DHT22;3037;51.068;13.780;2022-07-17T23:42:26;14.70;80.20
6018;DHT22;3037;51.068;13.780;2022-07-17T23:44:52;14.70;80.00
6018;DHT22;3037;51.068;13.780;2022-07-17T23:47:18;14.60;80.70
6018;DHT22;3037;51.068;13.780;2022-07-17T23:49:44;14.60;82.50
6018;DHT22;3037;51.068;13.780;2022-07-17T23:52:10;14.50;84.20
6018;DHT22;3037;51.068;13.780;2022-07-17T23:54:35;14.40;86.20
6018;DHT22;3037;51.068;13.780;2022-07-17T23:57:01;14.30;88.40
6018;DHT22;3037;51.068;13.780;2022-07-17T23:59:27;14.30;90.40
